Terminal Aerodrome Forecast
Issued by NWS Central Illinois

Home | Current Version | Previous Version | Text Only | Print | Product List | Glossary On
Versions: 1 2 3 4 5 6 7 8 9 10 11 12 13 14 15 16 17 18
000
FTUS43 KILX 271722
TAFPIA
TAF
KPIA 271722Z 2718/2818 28013G23KT P6SM SCT250
     FM272300 28007KT P6SM FEW250
     FM280900 32005KT P6SM BKN045
     FM281200 32007KT P6SM SCT015 BKN025=

USA.gov is the U.S. government's official web portal to all federal, state and local government web resources and services.